Lester Pr, Minnesota
Current Conditions -  °F | °C
As of 4:34 PM on Tuesday 21 Oct 2014 (Local Time) from KGYL Reporting Station
Clear Clear  
Wind Chill: 63°   Ceiling: Unl
Heat Index: 63°   Visibility: 10mi
Dew Point: 44°   Wind: 15mph
Humidity: 50%   Direction: 110°ESE
Pressure: 30.09"   Gusts: 18mph
Location:  44.8552°N, 94.071°W
Report Text: KGYL 212134Z AUTO 11013G16KT 10SM CLR 17/06 A3009 RMK AO2 T01700064
Loading
Personal Weather Stations






























Interactive Weather Map
Tropical Storm Tracking
New forecast layout! Learn more

10-Day Weather Forecast

Advertisements
Track Severe Weather on mobile